Time;durP1;ratioP1;P1;durP2;ratioP2;P2;SDS_P1;SDS_P2;PMS_P1;PMS_P2;Temp;Humidity;BMP_temperature;BMP_pressure;BME280_temperature;BME280_humidity;BME280_pressure;Samples;Min_cycle;Max_cycle;Signal;HPM_P1;HPM_P2
2023/09/23 00:02:13;;;;;;;0.60;0.53;;;;;;;16.30;100.00;98679.78;4979210;28;20246;-90
2023/09/23 00:04:42;;;;;;;0.47;0.47;;;;;;;16.24;100.00;98659.28;4969979;28;20212;-89
2023/09/23 00:07:10;;;;;;;0.40;0.40;;;;;;;16.17;100.00;98666.91;4979387;28;20199;-89
2023/09/23 00:09:45;;;;;;;0.40;0.40;;;;;;;16.10;100.00;98655.56;4995052;28;20204;-89
2023/09/23 00:12:13;;;;;;;0.40;0.40;;;;;;;16.07;100.00;98659.66;4975973;28;20218;-89
2023/09/23 00:14:41;;;;;;;2.60;0.50;;;;;;;16.04;100.00;98654.00;4962433;28;20239;-89
2023/09/23 00:17:12;;;;;;;0.63;0.40;;;;;;;16.07;100.00;98656.16;4978476;28;20247;-89
2023/09/23 00:19:40;;;;;;;0.50;0.50;;;;;;;16.04;100.00;98654.00;4993465;28;20617;-89
2023/09/23 00:22:09;;;;;;;0.40;0.40;;;;;;;16.01;100.00;98668.88;4962928;28;20209;-89
2023/09/23 00:24:36;;;;;;;0.33;0.33;;;;;;;15.95;100.00;98675.41;4994348;28;20212;-89
2023/09/23 00:27:04;;;;;;;0.57;0.50;;;;;;;15.88;100.00;98682.97;4978726;28;20217;-89
2023/09/23 00:29:37;;;;;;;0.67;0.50;;;;;;;15.85;100.00;98680.84;4979553;28;20210;-89
2023/09/23 00:32:05;;;;;;;0.40;0.40;;;;;;;15.83;100.00;98674.91;4963819;28;20208;-90
2023/09/23 00:34:33;;;;;;;0.50;0.50;;;;;;;15.78;100.00;98683.00;4978572;28;20202;-90
2023/09/23 00:37:07;;;;;;;0.60;0.60;;;;;;;15.75;100.00;98688.97;4963553;28;20211;-90
2023/09/23 00:39:42;;;;;;;0.63;0.37;;;;;;;15.76;100.00;98712.19;4984657;28;20247;-89
2023/09/23 00:42:17;;;;;;;0.50;0.50;;;;;;;15.77;100.00;98722.72;4976236;28;20203;-89
2023/09/23 00:44:47;;;;;;;0.60;0.60;;;;;;;15.77;100.00;98727.31;4978245;28;20630;-89
2023/09/23 00:47:16;;;;;;;0.50;0.50;;;;;;;15.77;100.00;98730.81;4994526;28;20199;-89
2023/09/23 00:49:49;;;;;;;0.50;0.50;;;;;;;15.72;100.00;98713.84;4978873;28;20204;-89
2023/09/23 00:52:17;;;;;;;0.50;0.50;;;;;;;15.75;100.00;98721.38;4978357;28;20290;-89
2023/09/23 00:54:49;;;;;;;1.17;1.07;;;;;;;15.75;100.00;98719.50;4962896;28;20708;-90
2023/09/23 00:57:17;;;;;;;0.93;0.70;;;;;;;15.70;100.00;98721.41;4978849;28;20215;-88
2023/09/23 00:59:48;;;;;;;0.60;0.50;;;;;;;15.69;100.00;98728.69;4962858;28;20277;-88
2023/09/23 01:02:16;;;;;;;0.73;0.60;;;;;;;15.64;100.00;98731.38;4962421;28;20208;-89
2023/09/23 01:04:44;;;;;;;1.80;0.50;;;;;;;15.69;100.00;98725.97;4981736;28;20199;-90
2023/09/23 01:07:14;;;;;;;0.60;0.60;;;;;;;15.69;100.00;98703.56;4979170;28;20221;-89
2023/09/23 01:09:44;;;;;;;0.50;0.50;;;;;;;15.66;100.00;98709.53;4962871;28;20212;-89
2023/09/23 01:12:11;;;;;;;0.60;0.50;;;;;;;15.61;100.00;98702.25;4993262;28;20191;-89
2023/09/23 01:14:52;;;;;;;0.60;0.50;;;;;;;15.59;100.00;98704.41;4969940;28;20219;-89
2023/09/23 01:17:29;;;;;;;0.30;0.30;;;;;;;15.60;100.00;98714.13;4962095;28;20235;-89
2023/09/23 01:19:57;;;;;;;0.50;0.50;;;;;;;15.56;100.00;98720.34;4988544;28;20220;-89
2023/09/23 01:22:27;;;;;;;0.40;0.40;;;;;;;15.53;100.00;98724.41;4975210;28;20216;-89
2023/09/23 01:25:01;;;;;;;0.70;0.43;;;;;;;15.58;100.00;98735.22;4961822;28;20273;-90
2023/09/23 01:27:29;;;;;;;0.40;0.40;;;;;;;15.60;100.00;98743.00;4977765;28;20196;-89
2023/09/23 01:29:57;;;;;;;0.40;0.40;;;;;;;15.65;100.00;98743.00;4977663;28;20474;-89
2023/09/23 01:32:28;;;;;;;0.40;0.40;;;;;;;15.64;100.00;98722.47;4994386;28;20230;-90
2023/09/23 01:34:58;;;;;;;0.50;0.50;;;;;;;15.66;100.00;98709.53;4975821;28;20291;-91
2023/09/23 01:37:29;;;;;;;0.53;0.50;;;;;;;15.66;100.00;98709.53;4976623;28;20673;-90
2023/09/23 01:40:05;;;;;;;0.60;0.50;;;;;;;15.65;100.00;98713.31;4964579;28;20598;-90
2023/09/23 01:42:32;;;;;;;0.50;0.50;;;;;;;15.60;100.00;98724.94;4978290;28;20230;-90
2023/09/23 01:45:10;;;;;;;0.40;0.40;;;;;;;15.61;100.00;98739.25;4963772;28;20211;-90
2023/09/23 01:47:39;;;;;;;0.47;0.40;;;;;;;15.48;100.00;98747.88;4977626;28;20222;-91
2023/09/23 01:50:09;;;;;;;0.40;0.40;;;;;;;15.44;100.00;98756.50;4993412;28;20200;-91
2023/09/23 01:52:45;;;;;;;0.50;0.50;;;;;;;15.40;100.00;98760.00;4978236;28;20207;-90
2023/09/23 01:55:17;;;;;;;0.40;0.40;;;;;;;15.39;100.00;98753.03;4981213;28;20270;-90
2023/09/23 01:57:50;;;;;;;0.60;0.50;;;;;;;15.35;100.00;98763.53;4970739;28;20199;-89
2023/09/23 02:00:25;;;;;;;0.50;0.50;;;;;;;15.25;100.00;98773.53;4962091;28;20712;-90
2023/09/23 02:02:56;;;;;;;1.27;0.50;;;;;;;15.21;100.00;98773.25;4991187;28;20255;-90
2023/09/23 02:05:27;;;;;;;0.50;0.50;;;;;;;15.11;100.00;98773.28;4963978;28;20291;-90
2023/09/23 02:07:58;;;;;;;0.50;0.50;;;;;;;15.02;100.00;98776.78;4977402;28;20343;-91
2023/09/23 02:10:28;;;;;;;1.27;0.53;;;;;;;15.02;100.00;98774.06;4977129;28;20231;-90
2023/09/23 02:12:57;;;;;;;0.63;0.60;;;;;;;15.06;100.00;98769.75;4963276;28;20219;-90
2023/09/23 02:15:36;;;;;;;1.20;0.70;;;;;;;15.04;100.00;98761.13;4961204;28;20679;-90
2023/09/23 02:18:10;;;;;;;0.50;0.50;;;;;;;15.03;100.00;98760.31;4962087;28;20235;-90
2023/09/23 02:20:40;;;;;;;0.97;0.60;;;;;;;15.03;100.00;98770.28;4961358;28;20795;-90
2023/09/23 02:23:12;;;;;;;1.30;0.70;;;;;;;14.96;100.00;98767.88;4977249;28;20212;-91
2023/09/23 02:25:47;;;;;;;0.70;0.70;;;;;;;14.97;100.00;98772.19;4988630;28;20314;-90
2023/09/23 02:28:16;;;;;;;0.60;0.60;;;;;;;14.92;100.00;98780.28;4961113;28;20291;-90
2023/09/23 02:30:44;;;;;;;1.33;0.97;;;;;;;14.94;100.00;98791.59;4973879;28;20205;-91
2023/09/23 02:33:14;;;;;;;0.50;0.50;;;;;;;14.92;100.00;98791.88;4978045;28;20295;-90
2023/09/23 02:35:46;;;;;;;0.87;0.70;;;;;;;14.89;100.00;98787.00;4968232;28;20199;-90
2023/09/23 02:38:13;;;;;;;1.83;0.70;;;;;;;14.91;100.00;98792.13;4961607;28;20226;-91
2023/09/23 02:40:45;;;;;;;0.77;0.70;;;;;;;14.91;100.00;98798.34;4977049;28;20219;-91
2023/09/23 02:43:13;;;;;;;0.60;0.60;;;;;;;14.89;100.00;98805.88;4977648;28;20214;-90
2023/09/23 02:45:51;;;;;;;1.30;0.60;;;;;;;14.95;100.00;98812.09;4961553;28;20645;-90
2023/09/23 02:48:23;;;;;;;0.70;0.57;;;;;;;14.85;100.00;98820.97;4993531;28;20213;-91
2023/09/23 02:50:53;;;;;;;0.50;0.50;;;;;;;14.82;100.00;98845.78;4961334;28;20218;-91
2023/09/23 02:53:23;;;;;;;0.90;0.80;;;;;;;14.78;100.00;98850.09;4977257;28;20204;-91
2023/09/23 02:56:08;;;;;;;0.50;0.50;;;;;;;14.76;100.00;98840.63;4967859;28;20734;-91
2023/09/23 02:58:43;;;;;;;0.47;0.47;;;;;;;14.81;100.00;98830.66;4978766;28;20211;-91
2023/09/23 03:01:14;;;;;;;0.77;0.50;;;;;;;14.72;100.00;98832.25;4960264;28;20227;-92
2023/09/23 03:03:43;;;;;;;1.03;0.60;;;;;;;14.70;100.00;98837.09;4977292;28;20246;-91
2023/09/23 03:06:18;;;;;;;0.60;0.60;;;;;;;14.68;100.00;98819.59;4961779;28;20291;-91
2023/09/23 03:08:53;;;;;;;0.70;0.70;;;;;;;14.62;100.00;98821.44;4983219;28;20208;-91
2023/09/23 03:11:26;;;;;;;0.60;0.60;;;;;;;14.60;100.00;98831.69;4977822;28;20203;-91
2023/09/23 03:13:57;;;;;;;0.60;0.60;;;;;;;14.60;100.00;98845.19;4962206;28;20207;-91
2023/09/23 03:16:28;;;;;;;0.60;0.60;;;;;;;14.63;100.00;98844.66;4976430;28;20212;-91
2023/09/23 03:19:10;;;;;;;0.60;0.60;;;;;;;14.66;100.00;98848.69;4992276;28;20192;-91
2023/09/23 03:21:45;;;;;;;2.00;0.70;;;;;;;14.64;100.00;98840.88;4978630;28;20227;-91
2023/09/23 03:24:13;;;;;;;0.70;0.70;;;;;;;14.69;100.00;98848.16;4964819;28;20210;-90
2023/09/23 03:26:40;;;;;;;0.60;0.60;;;;;;;14.70;100.00;98858.66;4964105;28;20858;-91
2023/09/23 03:29:10;;;;;;;0.70;0.70;;;;;;;14.71;100.00;98857.59;4964425;28;20287;-92
2023/09/23 03:31:38;;;;;;;0.77;0.63;;;;;;;14.75;100.00;98860.56;4979654;28;20219;-91
2023/09/23 03:34:07;;;;;;;0.90;0.70;;;;;;;14.80;100.00;98865.97;4996056;28;20203;-92
2023/09/23 03:36:35;;;;;;;1.57;0.87;;;;;;;14.75;100.00;98869.47;4995105;28;20283;-91
2023/09/23 03:39:17;;;;;;;0.87;0.70;;;;;;;14.78;100.00;98870.84;4984253;28;20207;-91
2023/09/23 03:41:49;;;;;;;0.60;0.60;;;;;;;14.78;100.00;98866.28;4979644;28;20231;-91
2023/09/23 03:44:21;;;;;;;0.90;0.70;;;;;;;14.79;100.00;98849.00;4995933;28;20277;-91
2023/09/23 03:46:50;;;;;;;1.00;1.00;;;;;;;14.77;100.00;98850.34;4965233;28;20246;-91
2023/09/23 03:49:18;;;;;;;0.90;0.90;;;;;;;14.71;100.00;98848.69;4995876;28;20298;-91
2023/09/23 03:51:46;;;;;;;1.00;0.93;;;;;;;14.65;100.00;98845.16;4971784;28;20226;-91
2023/09/23 03:54:15;;;;;;;0.93;0.93;;;;;;;14.59;100.00;98850.81;4979388;28;20222;-91
2023/09/23 03:56:42;;;;;;;0.83;0.83;;;;;;;14.55;100.00;98861.34;4979194;28;20204;-91
2023/09/23 03:59:10;;;;;;;0.87;0.87;;;;;;;14.52;100.00;98872.63;4959871;28;20207;-91
2023/09/23 04:01:44;;;;;;;1.20;1.10;;;;;;;14.49;100.00;98875.84;4971225;28;20245;-91
2023/09/23 04:04:17;;;;;;;1.20;1.10;;;;;;;14.50;100.00;98874.78;4974633;28;20237;-89
2023/09/23 04:06:46;;;;;;;1.50;1.40;;;;;;;14.45;100.00;98867.50;4979208;28;20219;-91
2023/09/23 04:09:16;;;;;;;1.13;1.03;;;;;;;14.47;100.00;98861.81;4987374;28;20196;-92
2023/09/23 04:11:45;;;;;;;2.40;1.27;;;;;;;14.47;100.00;98857.25;4978732;28;20694;-91
2023/09/23 04:14:13;;;;;;;1.73;1.60;;;;;;;14.43;100.00;98858.84;4979668;28;20218;-91
2023/09/23 04:16:40;;;;;;;1.20;1.07;;;;;;;14.39;100.00;98883.88;4978994;28;20280;-90
2023/09/23 04:19:07;;;;;;;1.50;1.30;;;;;;;14.38;100.00;98901.13;4995458;28;20199;-91
2023/09/23 04:21:42;;;;;;;1.37;1.27;;;;;;;14.36;100.00;98906.78;4994940;28;20251;-91
2023/09/23 04:24:29;;;;;;;1.43;1.33;;;;;;;14.40;100.00;98907.88;4986041;28;20201;-91
2023/09/23 04:26:57;;;;;;;1.60;1.47;;;;;;;14.40;100.00;98899.00;4994048;28;20756;-91
2023/09/23 04:29:32;;;;;;;1.50;1.40;;;;;;;14.42;100.00;98896.81;4979088;28;20192;-92
2023/09/23 04:32:00;;;;;;;1.33;1.23;;;;;;;14.38;100.00;98899.25;4985948;28;20203;-92
2023/09/23 04:34:35;;;;;;;2.10;1.53;;;;;;;14.38;100.00;98898.44;4969057;28;20207;-91
2023/09/23 04:37:04;;;;;;;1.60;1.50;;;;;;;14.33;100.00;98907.25;4979726;28;20203;-91
2023/09/23 04:39:45;;;;;;;3.13;1.90;;;;;;;14.33;100.00;98914.53;4978843;28;20203;-91
2023/09/23 04:42:13;;;;;;;1.70;1.60;;;;;;;14.29;100.00;98908.03;4978349;28;20234;-91
2023/09/23 04:44:43;;;;;;;2.57;1.73;;;;;;;14.30;100.00;98921.28;4984542;28;20278;-91
2023/09/23 04:47:19;;;;;;;1.83;1.60;;;;;;;14.33;100.00;98922.63;4978520;28;20210;-91
2023/09/23 04:49:49;;;;;;;2.90;1.90;;;;;;;14.36;100.00;98931.03;4978827;28;20215;-89
2023/09/23 04:52:44;;;;;;;1.80;1.70;;;;;;;14.40;100.00;98931.31;4994493;28;20206;-91
2023/09/23 04:55:14;;;;;;;1.83;1.63;;;;;;;14.42;100.00;98934.56;4974926;28;20219;-91
2023/09/23 04:57:42;;;;;;;1.93;1.53;;;;;;;14.43;100.00;98942.38;4961721;28;20208;-91
2023/09/23 05:00:18;;;;;;;2.27;1.87;;;;;;;14.45;100.00;98948.34;4963277;28;20200;-90
2023/09/23 05:02:49;;;;;;;1.70;1.60;;;;;;;14.46;100.00;98951.84;4966798;28;20207;-91
2023/09/23 05:05:18;;;;;;;3.13;1.47;;;;;;;14.47;100.00;98953.44;4993973;28;20196;-91
2023/09/23 05:07:47;;;;;;;1.70;1.60;;;;;;;14.43;100.00;98963.13;4976428;28;20559;-91
2023/09/23 05:10:15;;;;;;;1.60;1.50;;;;;;;14.41;100.00;98963.41;4976952;28;20208;-91
2023/09/23 05:12:44;;;;;;;1.83;1.73;;;;;;;14.34;100.00;98968.19;4961776;28;20254;-91
2023/09/23 05:15:14;;;;;;;2.57;1.70;;;;;;;14.30;100.00;98953.59;4982022;28;20286;-91
2023/09/23 05:17:45;;;;;;;3.00;1.60;;;;;;;14.29;100.00;98951.97;4977626;28;20735;-91
2023/09/23 05:20:16;;;;;;;2.50;1.53;;;;;;;14.30;100.00;98947.41;4964299;28;20204;-90
2023/09/23 05:22:49;;;;;;;1.60;1.50;;;;;;;14.34;100.00;98960.09;4978634;28;20221;-89
2023/09/23 05:25:21;;;;;;;1.60;1.50;;;;;;;14.39;100.00;98962.84;4991153;28;20209;-91
2023/09/23 05:27:54;;;;;;;1.70;1.50;;;;;;;14.39;100.00;98964.72;4978522;28;20234;-90
2023/09/23 05:30:22;;;;;;;1.60;1.43;;;;;;;14.41;100.00;98970.69;4977869;28;20204;-90
2023/09/23 05:32:52;;;;;;;1.70;1.60;;;;;;;14.40;100.00;98969.88;4977828;28;20290;-91
2023/09/23 05:35:19;;;;;;;1.97;1.07;;;;;;;14.40;100.00;98988.75;4961290;28;20223;-91
2023/09/23 05:37:51;;;;;;;1.53;1.40;;;;;;;14.42;100.00;98989.28;4977536;28;20207;-90
2023/09/23 05:43:12;;;;;;;1.30;1.20;;;;;;;14.43;100.00;98998.16;5093571;22;20289;-90
2023/09/23 05:45:49;;;;;;;1.33;1.23;;;;;;;14.41;100.00;99003.84;5016785;28;20200;-90
2023/09/23 05:48:20;;;;;;;1.60;1.50;;;;;;;14.47;100.00;99010.88;5014830;28;20210;-91
2023/09/23 05:50:49;;;;;;;2.47;1.60;;;;;;;14.46;100.00;99009.25;5011747;28;20197;-91
2023/09/23 05:56:25;;;;;;;1.40;1.27;;;;;;;14.45;100.00;99020.31;5061038;23;20245;-90
2023/09/23 05:58:55;;;;;;;1.57;1.40;;;;;;;14.51;100.00;99022.75;4950624;28;20687;-89
2023/09/23 06:01:22;;;;;;;1.40;1.30;;;;;;;14.55;100.00;99033.84;4943760;28;20221;-90
2023/09/23 06:03:56;;;;;;;1.30;1.20;;;;;;;14.54;100.00;99034.91;4949476;28;20209;-91
2023/09/23 06:06:27;;;;;;;1.67;1.33;;;;;;;14.54;100.00;99032.22;4946329;28;20205;-90
2023/09/23 06:08:58;;;;;;;1.50;1.40;;;;;;;14.58;100.00;99032.50;4950253;28;20234;-91
2023/09/23 06:11:27;;;;;;;1.63;1.10;;;;;;;14.60;100.00;99035.75;4955226;28;20695;-91
2023/09/23 06:13:58;;;;;;;1.27;1.10;;;;;;;14.62;100.00;99033.59;4935040;28;20197;-90
2023/09/23 06:16:33;;;;;;;1.40;1.30;;;;;;;14.66;100.00;99034.69;4936898;28;20209;-91
2023/09/23 06:19:04;;;;;;;1.20;1.10;;;;;;;14.68;100.00;99036.09;4942838;28;20203;-91
2023/09/23 06:21:39;;;;;;;1.33;1.20;;;;;;;14.73;100.00;99038.81;4970634;28;20232;-91
2023/09/23 06:24:06;;;;;;;1.83;1.50;;;;;;;14.82;100.00;99039.94;4966947;28;20211;-92
2023/09/23 06:26:34;;;;;;;1.47;1.13;;;;;;;14.89;100.00;99040.50;4973102;28;20208;-90
2023/09/23 06:29:09;;;;;;;3.57;2.00;;;;;;;14.91;100.00;99043.78;4938854;29;20209;-92
2023/09/23 06:31:41;;;;;;;2.23;1.50;;;;;;;14.98;100.00;99044.34;4954650;28;20196;-89
2023/09/23 06:34:17;;;;;;;1.73;1.10;;;;;;;15.07;100.00;99049.25;4949084;28;20201;-89
2023/09/23 06:36:46;;;;;;;1.30;1.13;;;;;;;15.14;100.00;99056.03;4948369;28;20209;-90
2023/09/23 06:39:13;;;;;;;1.67;1.20;;;;;;;15.18;100.00;99057.13;4956723;28;20291;-90
2023/09/23 06:41:45;;;;;;;1.40;1.30;;;;;;;15.20;100.00;99054.97;4970534;28;20243;-90
2023/09/23 06:44:17;;;;;;;1.23;0.90;;;;;;;15.24;100.00;99053.38;4938159;28;20220;-90
2023/09/23 06:46:47;;;;;;;1.70;1.17;;;;;;;15.29;100.00;99057.97;4943090;28;20224;-90
2023/09/23 06:49:18;;;;;;;1.47;1.10;;;;;;;15.28;100.00;99065.25;4956683;28;20209;-90
2023/09/23 06:51:45;;;;;;;0.90;0.90;;;;;;;15.23;100.00;99061.72;4937391;29;20208;-90
2023/09/23 06:54:13;;;;;;;1.77;1.20;;;;;;;15.23;100.00;99059.03;4941589;28;20311;-90
2023/09/23 06:56:41;;;;;;;1.40;1.17;;;;;;;15.21;100.00;99067.38;4946749;29;20216;-90
2023/09/23 06:59:10;;;;;;;1.03;0.90;;;;;;;15.22;100.00;99074.41;4951169;29;20674;-90
2023/09/23 07:01:41;;;;;;;1.17;1.07;;;;;;;15.20;100.00;99073.06;4943715;28;20221;-89
2023/09/23 07:04:12;;;;;;;1.37;1.10;;;;;;;15.25;100.00;99087.38;4959386;28;20228;-89
2023/09/23 07:06:45;;;;;;;1.53;1.07;;;;;;;15.29;100.00;99090.34;4949627;28;20208;-90
2023/09/23 07:09:18;;;;;;;1.03;1.00;;;;;;;15.30;100.00;99095.47;4955354;28;20212;-89
2023/09/23 07:11:48;;;;;;;0.83;0.83;;;;;;;15.38;100.00;99100.38;4976009;28;20205;-89
2023/09/23 07:14:19;;;;;;;2.10;1.10;;;;;;;15.39;100.00;99101.22;4970004;28;20208;-89
2023/09/23 07:16:48;;;;;;;1.50;1.10;;;;;;;15.38;100.00;99100.38;4973931;28;20201;-89
2023/09/23 07:19:17;;;;;;;1.10;1.00;;;;;;;15.38;100.00;99113.88;4931714;28;20201;-91
2023/09/23 07:21:44;;;;;;;2.60;1.20;;;;;;;15.38;100.00;99122.00;4935363;28;20232;-89
2023/09/23 07:24:14;;;;;;;1.47;1.10;;;;;;;15.44;100.00;99133.63;4969198;28;20205;-88
2023/09/23 07:26:41;;;;;;;1.40;0.90;;;;;;;15.49;100.00;99130.13;4964384;28;20197;-89
2023/09/23 07:29:10;;;;;;;1.40;1.30;;;;;;;15.53;100.00;99129.38;4957317;28;20205;-89
2023/09/23 07:31:37;;;;;;;1.30;1.00;;;;;;;15.59;100.00;99133.69;4930607;28;20237;-89
2023/09/23 07:34:06;;;;;;;1.13;1.03;;;;;;;15.60;100.00;99129.13;4953509;29;20205;-89
2023/09/23 07:36:38;;;;;;;2.10;1.43;;;;;;;15.67;100.00;99135.91;4957486;28;20207;-90
2023/09/23 07:39:18;;;;;;;1.73;1.10;;;;;;;15.72;100.00;99138.59;4941180;28;20685;-89
2023/09/23 07:41:50;;;;;;;1.40;1.30;;;;;;;15.76;100.00;99142.44;4963155;28;20220;-89
2023/09/23 07:44:17;;;;;;;1.30;1.20;;;;;;;15.77;100.00;99152.13;4934947;28;20204;-89
2023/09/23 07:46:48;;;;;;;1.20;1.10;;;;;;;15.76;100.00;99153.22;4949716;28;20556;-89
2023/09/23 07:49:33;;;;;;;1.70;0.87;;;;;;;15.79;100.00;99149.16;4963985;28;20227;-89
2023/09/23 07:52:02;;;;;;;1.67;1.20;;;;;;;15.84;100.00;99155.41;4949590;28;20204;-90
2023/09/23 07:54:30;;;;;;;1.17;1.03;;;;;;;15.87;100.00;99151.34;4956238;28;20271;-89
2023/09/23 07:57:01;;;;;;;1.23;0.90;;;;;;;15.84;100.00;99154.59;4963143;28;20221;-89
2023/09/23 07:59:31;;;;;;;1.43;1.10;;;;;;;15.92;100.00;99153.25;4970470;28;20673;-89
2023/09/23 08:02:03;;;;;;;1.57;0.90;;;;;;;15.85;100.00;99148.13;4951919;28;20295;-89
2023/09/23 08:04:34;;;;;;;2.83;1.20;;;;;;;15.90;100.00;99152.72;4954245;28;20204;-89
2023/09/23 08:07:01;;;;;;;1.33;1.10;;;;;;;15.95;100.00;99148.16;4956052;28;20216;-89
2023/09/23 08:09:29;;;;;;;2.00;1.00;;;;;;;16.02;100.00;99158.69;4958381;28;20220;-89
2023/09/23 08:12:05;;;;;;;1.40;1.10;;;;;;;16.11;100.00;99165.22;4950923;28;20209;-90
2023/09/23 08:14:32;;;;;;;1.50;1.40;;;;;;;16.18;100.00;99157.66;4956056;28;20231;-89
2023/09/23 08:17:02;;;;;;;1.10;1.00;;;;;;;16.22;100.00;99158.75;4952148;28;20278;-90
2023/09/23 08:19:44;;;;;;;1.30;0.93;;;;;;;16.26;100.00;99155.25;4949082;28;20200;-89
2023/09/23 08:22:18;;;;;;;1.67;1.00;;;;;;;16.19;100.00;99154.69;4935746;28;20248;-88
2023/09/23 08:24:46;;;;;;;2.37;1.20;;;;;;;16.19;100.00;99146.56;4929484;28;20214;-89
2023/09/23 08:27:17;;;;;;;1.90;1.10;;;;;;;16.26;100.00;99136.31;4949656;28;20193;-90
2023/09/23 08:29:45;;;;;;;1.27;1.10;;;;;;;16.43;100.00;99138.75;4930861;28;20202;-90
2023/09/23 08:32:16;;;;;;;1.70;1.30;;;;;;;16.67;100.00;99152.59;4955572;28;20205;-90
2023/09/23 08:34:49;;;;;;;1.30;1.20;;;;;;;16.75;100.00;99143.16;4968255;28;20896;-90
2023/09/23 08:37:22;;;;;;;2.40;1.20;;;;;;;16.93;100.00;99145.31;4966209;28;20202;-90
2023/09/23 08:39:53;;;;;;;1.63;1.50;;;;;;;17.13;100.00;99145.25;4972465;28;20239;-90
2023/09/23 08:42:22;;;;;;;1.40;1.13;;;;;;;17.16;100.00;99148.25;4962420;28;20222;-90
2023/09/23 08:44:54;;;;;;;1.60;1.50;;;;;;;17.36;100.00;99155.47;4952139;28;20666;-90
2023/09/23 08:47:23;;;;;;;1.20;1.10;;;;;;;17.28;100.00;99147.94;4964559;28;20232;-89
2023/09/23 08:49:52;;;;;;;2.53;1.33;;;;;;;17.46;100.00;99151.94;4932302;28;20214;-90
2023/09/23 08:52:24;;;;;;;1.27;1.17;;;;;;;17.65;100.00;99147.56;4954865;28;20316;-90
2023/09/23 08:54:58;;;;;;;1.87;1.40;;;;;;;17.78;100.00;99152.38;4954222;28;20237;-90
2023/09/23 08:57:30;;;;;;;1.40;1.30;;;;;;;18.00;100.00;99149.31;4956038;28;20209;-90
2023/09/23 08:59:58;;;;;;;1.67;1.33;;;;;;;17.93;100.00;99156.91;4955736;28;20239;-90
2023/09/23 09:02:29;;;;;;;2.07;1.50;;;;;;;18.18;100.00;99154.09;4967665;28;20225;-90
2023/09/23 09:04:58;;;;;;;1.40;1.30;;;;;;;18.33;100.00;99164.03;4950797;28;20203;-90
2023/09/23 09:07:35;;;;;;;1.70;1.60;;;;;;;18.34;100.00;99162.91;4960892;28;20291;-90
2023/09/23 09:10:04;;;;;;;1.50;1.40;;;;;;;18.21;100.00;99174.38;4935180;28;20241;-90
2023/09/23 09:12:32;;;;;;;1.60;1.50;;;;;;;18.40;100.00;99149.03;4948495;28;20197;-90
2023/09/23 09:15:03;;;;;;;1.63;1.53;;;;;;;18.71;100.00;99146.94;4946211;28;20212;-90
2023/09/23 09:17:33;;;;;;;1.67;1.57;;;;;;;18.70;100.00;99147.22;4954628;28;20191;-90
2023/09/23 09:20:07;;;;;;;1.67;1.57;;;;;;;18.82;100.00;99134.91;4933735;28;20204;-90
2023/09/23 09:22:39;;;;;;;1.80;1.70;;;;;;;18.82;100.00;99140.34;4950273;28;20220;-90
2023/09/23 09:25:12;;;;;;;1.83;1.73;;;;;;;18.86;100.00;99138.66;4962993;28;20197;-91
2023/09/23 09:27:44;;;;;;;1.80;1.70;;;;;;;18.56;100.00;99146.25;4951138;28;20192;-90
2023/09/23 09:30:16;;;;;;;2.13;1.93;;;;;;;18.41;100.00;99153.38;4949213;28;20194;-90
2023/09/23 09:32:51;;;;;;;2.40;2.13;;;;;;;18.20;100.00;99159.19;4943742;28;20332;-91
2023/09/23 09:35:19;;;;;;;3.33;2.10;;;;;;;18.31;100.00;99166.19;4931457;28;20591;-90
2023/09/23 09:38:00;;;;;;;2.30;2.20;;;;;;;18.13;100.00;99166.84;4956281;28;20228;-90
2023/09/23 09:40:44;;;;;;;2.43;2.23;;;;;;;18.17;100.00;99162.47;4948508;28;20215;-90
2023/09/23 09:43:11;;;;;;;2.77;2.50;;;;;;;18.20;100.00;99162.72;4963137;28;20316;-90
2023/09/23 09:45:42;;;;;;;3.37;2.87;;;;;;;18.25;100.00;99161.88;4950321;28;20213;-90
2023/09/23 09:48:32;;;;;;;3.20;2.90;;;;;;;18.31;100.00;99163.47;4963881;28;20346;-90
2023/09/23 09:51:15;;;;;;;3.13;2.83;;;;;;;18.35;100.00;99165.34;4944258;28;20209;-90
2023/09/23 09:53:45;;;;;;;3.00;2.80;;;;;;;18.41;100.00;99166.13;4965141;28;20283;-90
2023/09/23 09:56:14;;;;;;;3.80;2.87;;;;;;;18.42;100.00;99184.84;4943056;29;20359;-90
2023/09/23 09:58:48;;;;;;;3.30;3.00;;;;;;;18.46;100.00;99180.47;4970238;28;20223;-90
2023/09/23 10:01:17;;;;;;;3.17;2.87;;;;;;;18.47;100.00;99192.97;4971108;28;20192;-90
2023/09/23 10:03:48;;;;;;;3.10;2.80;;;;;;;18.47;100.00;99194.84;4947790;28;20242;-90
2023/09/23 10:06:22;;;;;;;3.40;3.10;;;;;;;18.43;100.00;99193.75;4946192;28;20206;-90
2023/09/23 10:08:51;;;;;;;3.40;3.20;;;;;;;18.47;100.00;99189.44;4942056;28;20666;-89
2023/09/23 10:11:35;;;;;;;3.27;3.07;;;;;;;18.57;100.00;99186.66;4955225;28;20209;-90
2023/09/23 10:14:16;;;;;;;3.17;2.87;;;;;;;18.97;100.00;99184.72;4939300;28;20296;-90
2023/09/23 10:16:59;;;;;;;3.20;2.90;;;;;;;19.18;100.00;99186.94;4957825;28;20283;-89
2023/09/23 10:19:32;;;;;;;3.03;2.70;;;;;;;19.10;100.00;99195.72;4933817;28;20727;-92
2023/09/23 10:22:29;;;;;;;2.83;2.63;;;;;;;19.59;100.00;99203.69;4955623;28;20205;-91
2023/09/23 10:25:07;;;;;;;2.30;2.10;;;;;;;19.50;100.00;99196.47;4955033;28;20282;-91
2023/09/23 10:27:38;;;;;;;2.50;1.93;;;;;;;19.61;100.00;99196.06;4933684;29;20203;-91
2023/09/23 10:30:06;;;;;;;2.10;2.00;;;;;;;19.61;100.00;99196.06;4956919;28;20330;-92
2023/09/23 10:32:45;;;;;;;2.83;1.97;;;;;;;19.68;100.00;99193.00;4950306;28;20242;-91
2023/09/23 10:35:15;;;;;;;2.20;2.00;;;;;;;19.81;100.00;99197.72;4947742;28;20888;-89
2023/09/23 10:37:44;;;;;;;2.30;2.10;;;;;;;19.88;100.00;99205.50;4992457;28;20204;-90
2023/09/23 10:40:14;;;;;;;2.40;2.20;;;;;;;19.95;100.00;99201.38;4932467;28;20210;-89
2023/09/23 10:42:48;;;;;;;2.27;2.07;;;;;;;19.99;100.00;99188.81;4968526;28;20218;-89
2023/09/23 10:45:21;;;;;;;2.03;1.83;;;;;;;19.99;100.00;99191.53;4942877;28;20206;-89
2023/09/23 10:47:53;;;;;;;1.80;1.70;;;;;;;20.19;100.00;99191.25;4951954;28;20214;-89
2023/09/23 10:50:21;;;;;;;2.10;1.80;;;;;;;20.32;100.00;99203.34;4968724;28;20297;-90
2023/09/23 10:52:51;;;;;;;2.07;1.97;;;;;;;20.64;100.00;99206.13;4965850;28;20201;-90
2023/09/23 10:55:20;;;;;;;1.70;1.60;;;;;;;20.92;100.00;99214.41;4963549;28;20244;-89
2023/09/23 10:57:47;;;;;;;1.70;1.60;;;;;;;20.59;100.00;99219.00;4956739;28;20233;-90
2023/09/23 11:00:23;;;;;;;1.80;1.70;;;;;;;20.41;100.00;99212.47;4961381;28;20195;-89
2023/09/23 11:02:54;;;;;;;2.03;1.80;;;;;;;20.65;100.00;99212.41;4953233;28;20232;-89
2023/09/23 11:05:25;;;;;;;1.90;1.80;;;;;;;20.75;100.00;99214.16;4966251;28;20202;-89
2023/09/23 11:08:14;;;;;;;1.50;1.40;;;;;;;20.71;100.00;99219.38;4962003;28;20206;-89
2023/09/23 11:10:45;;;;;;;2.07;1.60;;;;;;;20.31;100.00;99220.75;4949462;28;20207;-90
2023/09/23 11:13:14;;;;;;;1.63;1.53;;;;;;;20.32;100.00;99213.41;4958601;28;20232;-89
2023/09/23 11:15:49;;;;;;;2.07;1.47;;;;;;;20.29;100.00;99230.31;4929184;28;20202;-89
2023/09/23 11:18:20;;;;;;;1.70;1.60;;;;;;;19.89;100.00;99224.25;4937714;28;20197;-89
2023/09/23 11:20:53;;;;;;;2.60;1.50;;;;;;;20.05;100.00;99222.19;4921561;29;20218;-88
2023/09/23 11:23:26;;;;;;;3.67;1.43;;;;;;;20.33;100.00;99218.56;4943436;29;20225;-89
2023/09/23 11:25:55;;;;;;;2.57;1.47;;;;;;;20.19;100.00;99220.38;4968681;28;20222;-89
2023/09/23 11:28:26;;;;;;;2.40;1.60;;;;;;;19.97;100.00;99228.28;4955094;28;20270;-89
2023/09/23 11:30:55;;;;;;;1.80;1.70;;;;;;;20.17;100.00;99230.72;4957810;28;20218;-89
2023/09/23 11:33:27;;;;;;;1.57;1.47;;;;;;;20.36;100.00;99234.31;4958933;28;20271;-88
2023/09/23 11:35:57;;;;;;;2.30;2.10;;;;;;;20.77;100.00;99239.97;4930886;28;20228;-88
2023/09/23 11:38:26;;;;;;;1.50;1.30;;;;;;;20.67;100.00;99244.78;4969748;28;20262;-88
2023/09/23 11:40:54;;;;;;;1.60;1.50;;;;;;;20.68;100.00;99258.06;4955490;28;20581;-89
2023/09/23 11:43:22;;;;;;;1.80;1.67;;;;;;;20.55;100.00;99246.00;4948042;28;20290;-89
2023/09/23 11:46:02;;;;;;;48.27;5.47;;;;;;;20.56;100.00;99233.22;4951636;28;20212;-88
2023/09/23 11:48:37;;;;;;;1.60;1.50;;;;;;;20.54;100.00;99210.91;4956382;28;20213;-88
2023/09/23 11:51:13;;;;;;;4.43;1.60;;;;;;;20.62;100.00;99210.28;4950835;28;20200;-88